Time;durP1;ratioP1;P1;durP2;ratioP2;P2;SDS_P1;SDS_P2;PMS_P1;PMS_P2;Temp;Humidity;BMP_temperature;BMP_pressure;BME280_temperature;BME280_humidity;BME280_pressure;Samples;Min_cycle;Max_cycle;Signal;HPM_P1;HPM_P2
2022/12/19 00:02:08;;;;;;;45.53;20.92;;;;;;;-0.81;70.84;96836.03;4986208;28;20108;-81
2022/12/19 00:04:34;;;;;;;38.38;18.67;;;;;;;-0.61;71.05;96873.03;5003059;28;20321;-81
2022/12/19 00:06:59;;;;;;;42.30;19.90;;;;;;;0.05;71.10;96974.53;4989453;28;20510;-83
2022/12/19 00:09:25;;;;;;;42.80;20.75;;;;;;;-0.45;71.17;96893.84;5015412;28;20065;-83
2022/12/19 00:11:51;;;;;;;41.70;18.70;;;;;;;-0.10;70.82;96943.09;4984219;28;20057;-80
2022/12/19 00:14:17;;;;;;;41.08;19.45;;;;;;;-0.29;71.13;96895.66;4984287;28;20046;-81
2022/12/19 00:16:42;;;;;;;44.33;20.40;;;;;;;0.18;71.01;96955.75;4984437;28;20042;-81
2022/12/19 00:19:10;;;;;;;43.95;20.08;;;;;;;0.25;70.60;96948.91;5001777;28;20119;-81
2022/12/19 00:21:35;;;;;;;45.70;20.52;;;;;;;0.00;70.20;96886.31;5001337;28;20124;-83
2022/12/19 00:24:06;;;;;;;42.30;20.60;;;;;;;0.08;70.55;96937.66;5000001;28;20235;-83
2022/12/19 00:26:35;;;;;;;43.60;20.35;;;;;;;-0.45;70.08;96833.91;4983588;28;20127;-83
2022/12/19 00:29:04;;;;;;;48.42;20.38;;;;;;;-0.71;70.70;96813.25;4983872;28;20073;-83
2022/12/19 00:31:33;;;;;;;41.85;19.42;;;;;;;0.37;70.62;96976.28;5001066;28;20119;-83
2022/12/19 00:34:00;;;;;;;49.13;20.88;;;;;;;0.29;70.99;96979.72;5001321;28;20057;-83
2022/12/19 00:36:27;;;;;;;41.97;19.60;;;;;;;0.26;71.54;96979.22;4983248;28;20041;-81
2022/12/19 00:38:54;;;;;;;48.22;20.38;;;;;;;-0.15;71.35;96927.09;4981191;28;20495;-82
2022/12/19 00:41:31;;;;;;;47.00;20.83;;;;;;;0.00;71.37;96948.91;4989237;28;20042;-82
2022/12/19 00:43:59;;;;;;;45.20;19.63;;;;;;;-0.48;71.79;96881.16;5001179;28;20044;-82
2022/12/19 00:46:26;;;;;;;44.53;21.15;;;;;;;-0.03;71.41;96962.31;5000977;28;20115;-82
2022/12/19 00:48:51;;;;;;;49.05;22.02;;;;;;;-0.05;71.29;96921.72;4999774;28;20116;-82
2022/12/19 00:51:20;;;;;;;47.13;20.35;;;;;;;0.48;70.87;96985.56;4983840;28;20142;-82
2022/12/19 00:53:48;;;;;;;43.45;20.25;;;;;;;0.55;70.78;96987.34;5001235;28;20046;-82
2022/12/19 00:56:19;;;;;;;45.88;21.42;;;;;;;0.57;70.32;96985.38;4983302;28;20045;-82
2022/12/19 00:58:44;;;;;;;42.22;20.20;;;;;;;-0.14;70.77;96889.59;5000849;28;20049;-81
2022/12/19 01:01:16;;;;;;;44.83;20.75;;;;;;;-0.29;71.50;96883.44;5001076;28;20429;-81
2022/12/19 01:03:42;;;;;;;41.70;19.65;;;;;;;0.37;71.06;96984.94;5000685;28;20046;-81
2022/12/19 01:06:07;;;;;;;47.03;21.08;;;;;;;0.20;71.77;97000.78;4983245;28;20701;-81
2022/12/19 01:08:33;;;;;;;43.90;19.85;;;;;;;0.17;72.11;97004.50;5000916;28;20531;-81
2022/12/19 01:10:59;;;;;;;49.13;21.08;;;;;;;-0.70;72.29;96867.00;4990811;28;20073;-81
2022/12/19 01:13:27;;;;;;;44.08;19.58;;;;;;;0.19;71.84;96983.47;5012948;28;20487;-81
2022/12/19 01:15:52;;;;;;;52.58;22.15;;;;;;;0.09;71.55;96941.91;5000729;28;20056;-82
2022/12/19 01:18:18;;;;;;;48.17;21.50;;;;;;;-0.72;71.35;96844.69;4983581;28;20104;-82
2022/12/19 01:20:47;;;;;;;48.17;22.48;;;;;;;-0.24;71.46;96873.34;4990429;28;20038;-82
2022/12/19 01:23:15;;;;;;;45.13;19.70;;;;;;;-0.10;71.37;96940.47;4999488;28;20516;-82
2022/12/19 01:25:41;;;;;;;47.42;20.15;;;;;;;0.07;71.39;96967.38;4983598;28;20038;-82
2022/12/19 01:28:10;;;;;;;44.80;21.00;;;;;;;-0.23;71.82;96921.09;5000394;28;20050;-82
2022/12/19 01:30:39;;;;;;;48.28;21.20;;;;;;;0.20;71.09;96962.44;4998891;28;20123;-82
2022/12/19 01:33:04;;;;;;;47.00;20.90;;;;;;;0.20;71.17;96948.59;5001638;28;20053;-82
2022/12/19 01:35:29;;;;;;;47.42;20.67;;;;;;;0.04;70.55;96878.19;5001389;28;20235;-82
2022/12/19 01:37:55;;;;;;;48.28;21.58;;;;;;;0.79;70.23;97004.72;5001015;28;20038;-81
2022/12/19 01:40:22;;;;;;;48.55;21.73;;;;;;;0.80;70.66;97003.75;4995925;28;20034;-81
2022/12/19 01:42:48;;;;;;;40.90;19.95;;;;;;;0.22;70.61;96931.78;4982278;28;20143;-81
2022/12/19 01:45:13;;;;;;;46.72;20.50;;;;;;;0.76;70.55;96994.63;4999689;28;20076;-81
2022/12/19 01:47:48;;;;;;;46.20;19.50;;;;;;;0.87;70.23;97001.28;4982721;28;20046;-81
2022/12/19 01:50:19;;;;;;;40.05;19.65;;;;;;;-0.13;71.02;96880.81;4982640;28;20042;-81
2022/12/19 01:52:46;;;;;;;44.50;20.10;;;;;;;0.39;70.77;96975.13;4998892;28;20046;-81
2022/12/19 01:55:13;;;;;;;43.38;19.80;;;;;;;-0.44;70.75;96825.94;4998489;28;20119;-83
2022/12/19 01:57:38;;;;;;;43.08;20.25;;;;;;;-0.12;71.20;96903.31;4981816;28;20536;-81
2022/12/19 02:00:08;;;;;;;42.83;19.55;;;;;;;0.44;71.19;96984.28;4982900;28;20076;-81
2022/12/19 02:02:59;;;;;;;46.67;19.63;;;;;;;0.05;72.01;96971.09;4982517;28;20046;-81
2022/12/19 02:05:25;;;;;;;45.83;20.65;;;;;;;-0.27;71.92;96904.94;4997396;28;20050;-83
2022/12/19 02:07:51;;;;;;;43.45;20.50;;;;;;;0.26;71.92;96987.06;4999698;28;20033;-82
2022/12/19 02:10:17;;;;;;;45.60;20.92;;;;;;;0.18;72.23;96989.69;4999261;28;20104;-83
2022/12/19 02:12:44;;;;;;;43.78;19.70;;;;;;;-0.43;72.36;96889.31;4981813;28;20045;-83
2022/12/19 02:15:12;;;;;;;46.42;20.02;;;;;;;-0.56;72.07;96881.16;4981743;28;20659;-83
2022/12/19 02:18:05;;;;;;;43.58;20.25;;;;;;;-0.30;72.26;96918.28;4998054;28;20645;-83
2022/12/19 02:20:42;;;;;;;48.28;20.80;;;;;;;0.30;71.67;96980.53;4999326;28;20045;-82
2022/12/19 02:23:11;;;;;;;46.65;21.00;;;;;;;0.47;71.66;96981.31;4981380;28;20050;-83
2022/12/19 02:26:05;;;;;;;49.10;20.73;;;;;;;0.72;70.61;96986.31;4981289;28;20270;-83
2022/12/19 02:28:52;;;;;;;52.63;21.77;;;;;;;0.69;70.16;96991.84;4997880;28;20045;-83
2022/12/19 02:31:17;;;;;;;46.00;19.88;;;;;;;0.47;71.22;97002.19;4999401;28;20133;-83
2022/12/19 02:33:51;;;;;;;44.78;19.92;;;;;;;0.52;70.73;97005.13;4978266;28;20531;-83
2022/12/19 02:36:44;;;;;;;46.00;19.70;;;;;;;0.50;71.29;97009.69;4993562;28;20571;-83
2022/12/19 02:39:18;;;;;;;45.72;20.95;;;;;;;0.05;71.04;96940.63;4999718;28;20499;-83
2022/12/19 02:41:49;;;;;;;44.85;20.38;;;;;;;0.05;70.90;96931.97;4999071;28;20042;-83
2022/12/19 02:44:23;;;;;;;40.10;20.30;;;;;;;-0.26;71.03;96897.94;5004147;28;20359;-83
2022/12/19 02:46:51;;;;;;;42.42;19.42;;;;;;;-0.45;70.75;96879.03;4994503;28;20085;-84
2022/12/19 02:49:16;;;;;;;44.55;21.27;;;;;;;0.00;71.27;96972.41;5005034;28;20072;-82
2022/12/19 02:51:42;;;;;;;42.97;20.90;;;;;;;-1.21;71.41;96785.56;5008195;28;20037;-83
2022/12/19 02:54:08;;;;;;;46.60;21.75;;;;;;;-0.14;72.42;96985.28;4998999;28;20038;-82
2022/12/19 02:56:42;;;;;;;44.55;21.23;;;;;;;-0.45;72.45;96923.34;4997846;28;20157;-83
2022/12/19 02:59:11;;;;;;;50.55;22.88;;;;;;;0.09;72.56;96995.88;4980823;28;20050;-82
2022/12/19 03:02:27;;;;;;;47.85;21.05;;;;;;;0.13;72.77;96990.19;4982182;28;20511;-81
2022/12/19 03:04:52;;;;;;;46.22;20.73;;;;;;;0.33;71.72;96982.81;4958428;28;20078;-81
2022/12/19 03:07:41;;;;;;;49.38;20.15;;;;;;;-0.37;72.69;96948.59;4958059;28;20176;-81
2022/12/19 03:10:28;;;;;;;45.08;20.08;;;;;;;-0.16;72.93;96977.63;4967156;28;20050;-81
2022/12/19 03:13:04;;;;;;;44.80;19.38;;;;;;;-0.51;72.72;96910.97;4978662;28;20046;-81
2022/12/19 03:15:31;;;;;;;48.72;21.73;;;;;;;-0.40;72.90;96905.44;4996639;28;20053;-81
2022/12/19 03:17:58;;;;;;;48.97;21.05;;;;;;;-0.04;72.33;96949.44;5003057;28;20042;-81
2022/12/19 03:20:47;;;;;;;44.85;20.38;;;;;;;-0.25;72.23;96921.25;5004316;28;20038;-81
2022/12/19 03:23:13;;;;;;;50.88;20.95;;;;;;;0.28;70.87;96978.09;4981886;28;20041;-81
2022/12/19 03:25:42;;;;;;;49.83;21.25;;;;;;;-0.13;72.24;96942.56;4986371;28;20042;-81
2022/12/19 03:28:14;;;;;;;44.65;21.08;;;;;;;-0.01;71.45;96944.72;5004555;28;20445;-81
2022/12/19 03:30:43;;;;;;;43.75;19.75;;;;;;;-0.69;71.06;96821.75;5004258;28;20038;-81
2022/12/19 03:33:12;;;;;;;45.08;20.92;;;;;;;-0.03;70.63;96889.28;5002915;28;20124;-81
2022/12/19 03:35:39;;;;;;;40.35;18.95;;;;;;;0.10;70.92;96921.84;5002212;28;20049;-81
2022/12/19 03:38:06;;;;;;;42.38;19.33;;;;;;;-0.32;70.76;96846.47;5003978;28;20041;-81
2022/12/19 03:40:34;;;;;;;47.33;19.40;;;;;;;0.22;70.14;96946.63;5002285;28;20508;-81
2022/12/19 03:43:08;;;;;;;51.03;21.05;;;;;;;0.52;70.04;97012.97;5004029;28;20472;-81
2022/12/19 03:45:44;;;;;;;42.60;19.23;;;;;;;-0.23;70.79;96908.84;4985908;28;20470;-81
2022/12/19 03:48:21;;;;;;;50.83;20.92;;;;;;;0.02;70.57;96961.00;5001732;28;20119;-81
2022/12/19 03:51:08;;;;;;;45.30;21.08;;;;;;;0.46;70.34;97005.81;4983136;28;20519;-81
2022/12/19 03:53:59;;;;;;;46.78;20.20;;;;;;;0.51;69.57;97008.72;4973671;28;20161;-81
2022/12/19 03:56:59;;;;;;;48.80;20.85;;;;;;;0.60;69.48;97018.19;4986455;28;20527;-82
2022/12/19 03:59:38;;;;;;;42.15;19.73;;;;;;;0.47;70.40;97016.06;4986634;28;20046;-82
2022/12/19 04:02:05;;;;;;;44.03;20.02;;;;;;;-0.27;69.77;96915.38;4984691;28;20536;-81
2022/12/19 04:04:36;;;;;;;47.53;20.33;;;;;;;-0.17;70.46;96943.91;4984438;28;20042;-81
2022/12/19 04:07:04;;;;;;;42.22;20.40;;;;;;;0.27;70.31;97028.66;4993419;28;20124;-81
2022/12/19 04:09:30;;;;;;;42.50;19.52;;;;;;;-0.68;70.65;96908.50;4995544;28;20052;-81
2022/12/19 04:12:02;;;;;;;46.13;19.92;;;;;;;-0.84;70.59;96898.91;5003231;28;20129;-81
2022/12/19 04:14:32;;;;;;;44.45;20.25;;;;;;;-0.32;70.91;97003.69;4992336;28;20038;-81
2022/12/19 04:17:07;;;;;;;48.53;20.98;;;;;;;-0.08;71.66;97045.44;5002031;28;20046;-81
2022/12/19 04:19:43;;;;;;;50.78;22.65;;;;;;;-0.52;72.12;97010.16;5001864;28;20052;-81
2022/12/19 04:22:37;;;;;;;46.20;20.35;;;;;;;-0.14;71.77;97053.91;5002353;28;20042;-81
2022/12/19 04:25:06;;;;;;;45.95;21.42;;;;;;;-1.20;71.93;96906.13;5002345;28;20108;-81
2022/12/19 04:27:34;;;;;;;43.80;19.85;;;;;;;-0.38;71.51;97033.81;4996313;28;20046;-81
2022/12/19 04:30:02;;;;;;;47.42;20.40;;;;;;;-0.29;71.52;97032.03;5002131;28;20077;-81
2022/12/19 04:32:31;;;;;;;55.17;22.40;;;;;;;-1.01;71.65;96918.88;5001265;28;20060;-81
2022/12/19 04:34:57;;;;;;;51.25;21.08;;;;;;;-0.54;71.98;96986.06;4984736;28;20057;-81
2022/12/19 04:37:23;;;;;;;48.05;21.85;;;;;;;-1.12;71.09;96863.66;5001015;28;20049;-81
2022/12/19 04:39:48;;;;;;;45.80;20.30;;;;;;;-0.76;71.15;96918.94;5000085;28;20049;-81
2022/12/19 04:42:14;;;;;;;48.78;22.17;;;;;;;-0.15;70.66;96986.25;5000608;28;20041;-81
2022/12/19 04:44:39;;;;;;;47.17;20.92;;;;;;;0.10;70.40;97003.53;4986528;28;20056;-81
2022/12/19 04:47:05;;;;;;;45.28;19.55;;;;;;;-0.38;69.96;96944.34;4999047;28;20046;-81
2022/12/19 04:49:30;;;;;;;47.03;20.73;;;;;;;-0.23;70.34;96979.25;5001900;28;20065;-81
2022/12/19 04:51:55;;;;;;;47.42;21.27;;;;;;;-0.37;70.46;96956.41;5000280;28;20330;-81
2022/12/19 04:54:21;;;;;;;46.22;20.15;;;;;;;0.28;69.35;97045.13;5001965;28;20049;-83
2022/12/19 04:56:46;;;;;;;49.13;21.58;;;;;;;0.41;69.54;97049.84;5000984;28;20061;-81
2022/12/19 04:59:12;;;;;;;47.22;20.75;;;;;;;0.42;69.84;97059.31;5001074;28;20049;-81
2022/12/19 05:01:37;;;;;;;50.70;20.88;;;;;;;0.11;70.05;97043.50;4984401;28;20038;-81
2022/12/19 05:04:03;;;;;;;47.97;21.27;;;;;;;0.26;69.68;97052.31;5002732;28;20459;-82
2022/12/19 05:06:28;;;;;;;45.33;20.75;;;;;;;0.24;69.49;97051.63;5002392;28;20049;-81
2022/12/19 05:08:54;;;;;;;55.10;21.25;;;;;;;0.19;69.52;97027.84;5000063;28;20038;-82
2022/12/19 05:11:20;;;;;;;48.75;20.70;;;;;;;0.50;69.84;97074.97;4985023;28;20046;-81
2022/12/19 05:13:45;;;;;;;49.85;21.42;;;;;;;0.10;69.69;97000.13;5002659;28;20540;-82
2022/12/19 05:16:11;;;;;;;47.50;21.20;;;;;;;-0.18;69.37;96935.25;4979588;28;20042;-81
2022/12/19 05:18:38;;;;;;;49.85;21.98;;;;;;;-0.27;69.72;96954.47;4973866;28;20114;-82
2022/12/19 05:21:04;;;;;;;50.60;21.60;;;;;;;0.42;69.76;97061.91;4997487;28;20042;-81
2022/12/19 05:23:29;;;;;;;50.92;21.98;;;;;;;0.00;70.52;97062.91;5004325;28;20476;-82
2022/12/19 05:26:00;;;;;;;48.72;22.02;;;;;;;-0.25;70.81;97004.69;4981801;28;20140;-82
2022/12/19 05:28:26;;;;;;;64.77;22.43;;;;;;;0.03;69.63;97031.25;4981604;28;20038;-83
2022/12/19 05:30:51;;;;;;;47.97;21.25;;;;;;;0.00;69.89;96998.47;4985981;28;20042;-82
2022/12/19 05:33:17;;;;;;;51.85;21.70;;;;;;;0.11;69.37;97043.50;4967652;28;20192;-82
2022/12/19 05:35:42;;;;;;;52.28;22.13;;;;;;;-0.41;71.14;97036.75;4971686;28;20167;-83
2022/12/19 05:38:08;;;;;;;51.58;22.33;;;;;;;-0.04;71.39;97075.44;4997229;28;20113;-82
2022/12/19 05:40:33;;;;;;;54.80;23.85;;;;;;;-1.28;71.04;96870.47;4997001;28;20033;-83
2022/12/19 05:42:59;;;;;;;53.85;23.58;;;;;;;-0.43;71.77;97061.34;4999952;28;20144;-82
2022/12/19 05:45:24;;;;;;;47.15;21.00;;;;;;;-0.27;71.67;97053.56;4992565;28;20283;-82
2022/12/19 05:47:49;;;;;;;51.88;22.08;;;;;;;-1.14;71.52;96943.75;4994688;28;20390;-82
2022/12/19 05:50:16;;;;;;;55.33;22.20;;;;;;;-0.33;71.68;97045.56;4997154;28;20611;-82
2022/12/19 05:52:42;;;;;;;53.22;21.85;;;;;;;-0.06;71.60;97068.75;4995043;28;20049;-82
2022/12/19 05:55:09;;;;;;;53.25;21.38;;;;;;;-0.15;70.99;97033.19;4996391;28;22305;-82
2022/12/19 05:57:34;;;;;;;56.92;23.40;;;;;;;-0.70;71.12;96965.19;4990633;28;20045;-82
2022/12/19 06:00:00;;;;;;;51.65;22.85;;;;;;;-0.15;70.99;97038.41;5005657;28;20062;-82
2022/12/19 06:02:26;;;;;;;49.08;22.40;;;;;;;-0.81;70.16;96888.97;4994688;28;20037;-82
2022/12/19 06:04:51;;;;;;;51.85;23.00;;;;;;;0.11;70.26;97038.28;4997782;28;20072;-82
2022/12/19 06:07:17;;;;;;;57.75;24.33;;;;;;;0.17;69.43;97007.13;4979498;28;20513;-83
2022/12/19 06:09:43;;;;;;;53.95;23.67;;;;;;;0.57;68.87;97068.94;4997575;28;20076;-83
2022/12/19 06:12:08;;;;;;;49.40;21.67;;;;;;;0.51;68.91;97064.38;4990198;28;20108;-83
2022/12/19 06:14:34;;;;;;;63.10;22.08;;;;;;;0.42;68.71;97052.28;4986016;28;20041;-84
2022/12/19 06:16:59;;;;;;;46.58;21.23;;;;;;;0.79;68.34;97085.69;4979957;28;20045;-84
2022/12/19 06:19:25;;;;;;;53.10;23.05;;;;;;;0.88;68.03;97087.31;4996227;28;20109;-86
2022/12/19 06:21:50;;;;;;;48.97;22.60;;;;;;;0.26;67.91;97008.75;4976410;28;20833;-84
2022/12/19 06:24:16;;;;;;;53.97;22.33;;;;;;;0.49;68.91;97086.38;4985590;28;20362;-84
2022/12/19 06:26:42;;;;;;;54.72;22.45;;;;;;;0.32;68.95;97055.06;4978214;28;20543;-84
2022/12/19 06:29:08;;;;;;;61.08;24.38;;;;;;;0.29;68.45;97039.75;4977547;28;20041;-84
2022/12/19 06:31:33;;;;;;;48.88;22.40;;;;;;;-0.22;68.59;96954.78;4981299;28;20226;-85
2022/12/19 06:33:58;;;;;;;47.35;21.45;;;;;;;0.64;68.52;97061.25;4997257;28;20283;-83
2022/12/19 06:36:26;;;;;;;53.15;22.10;;;;;;;0.76;67.97;97039.03;4996664;28;20037;-85
2022/12/19 06:38:53;;;;;;;51.58;22.02;;;;;;;1.17;67.50;97111.09;4979223;28;20056;-83
2022/12/19 06:44:06;;;;;;;50.45;21.63;;;;;;;0.99;67.31;97080.94;4999143;28;20598;-83
2022/12/19 06:46:32;;;;;;;48.97;21.40;;;;;;;1.13;67.14;97107.19;4978410;28;20682;-84
2022/12/19 06:48:58;;;;;;;52.53;21.58;;;;;;;0.99;66.66;97070.50;4998920;28;20042;-83
2022/12/19 06:51:24;;;;;;;59.10;21.00;;;;;;;0.94;66.33;97046.66;4982015;28;20037;-83
2022/12/19 06:53:50;;;;;;;46.28;20.20;;;;;;;-1.36;65.49;96677.03;5000081;28;20082;-84
2022/12/19 06:56:16;;;;;;;52.72;22.23;;;;;;;1.37;66.30;97116.75;4993898;28;20308;-87
2022/12/19 06:58:42;;;;;;;48.17;21.38;;;;;;;1.40;65.64;97134.72;5000240;28;20372;-84
2022/12/19 07:01:38;;;;;;;53.20;22.33;;;;;;;1.47;65.78;97135.66;4998298;28;20391;-84
2022/12/19 07:04:03;;;;;;;66.22;23.70;;;;;;;1.18;65.84;97091.00;4971168;28;20478;-86
2022/12/19 07:06:29;;;;;;;60.15;23.75;;;;;;;1.21;65.45;97092.47;4991630;28;20054;-84
2022/12/19 07:08:54;;;;;;;67.75;25.83;;;;;;;1.51;65.87;97138.78;4989660;28;20041;-83
2022/12/19 07:11:20;;;;;;;62.90;24.17;;;;;;;0.95;65.75;97030.81;4985485;28;20038;-83
2022/12/19 07:13:45;;;;;;;48.80;22.67;;;;;;;1.32;65.50;97128.69;4968858;28;20088;-84
2022/12/19 07:16:11;;;;;;;46.33;20.00;;;;;;;1.16;64.95;97072.06;4988825;28;20111;-83
2022/12/19 07:18:39;;;;;;;55.72;23.15;;;;;;;0.73;65.44;97029.72;4979036;28;20156;-84
2022/12/19 07:21:07;;;;;;;52.22;23.55;;;;;;;1.39;64.73;97109.53;4975828;28;20052;-83
2022/12/19 07:23:33;;;;;;;51.67;23.52;;;;;;;1.52;64.50;97104.63;4971558;28;20045;-83
2022/12/19 07:25:59;;;;;;;60.15;24.98;;;;;;;0.89;64.59;97030.66;4977676;28;20537;-83
2022/12/19 07:28:25;;;;;;;50.90;24.20;;;;;;;1.41;64.36;97112.81;4991923;28;20053;-83
2022/12/19 07:30:51;;;;;;;55.28;24.35;;;;;;;1.47;64.42;97108.69;4989039;28;20060;-85
2022/12/19 07:33:16;;;;;;;55.00;23.88;;;;;;;0.04;64.17;96879.00;4977197;28;20657;-82
2022/12/19 07:35:42;;;;;;;56.67;24.85;;;;;;;1.42;64.45;97090.09;4974200;28;20100;-83
2022/12/19 07:38:07;;;;;;;58.33;26.15;;;;;;;1.60;64.51;97136.94;4995102;28;20064;-83
2022/12/19 07:40:34;;;;;;;63.95;27.88;;;;;;;1.65;65.29;97155.56;4989846;28;20049;-83
2022/12/19 07:43:01;;;;;;;60.13;27.30;;;;;;;1.33;65.75;97130.31;4982707;28;20046;-84
2022/12/19 07:45:27;;;;;;;62.65;27.80;;;;;;;1.47;65.83;97171.44;4992990;28;20049;-83
2022/12/19 07:47:53;;;;;;;65.72;28.58;;;;;;;1.07;65.35;97070.44;4980343;28;20068;-83
2022/12/19 07:50:19;;;;;;;71.18;29.50;;;;;;;1.78;65.29;97182.78;4997835;28;20487;-84
2022/12/19 07:52:45;;;;;;;78.60;32.47;;;;;;;1.13;65.73;97073.22;4992076;28;20042;-85
2022/12/19 07:55:12;;;;;;;85.45;32.95;;;;;;;0.84;65.77;97025.16;4982420;28;20260;-87
2022/12/19 07:57:38;;;;;;;73.25;30.50;;;;;;;-0.08;65.23;96878.50;4980549;28;20061;-89
2022/12/19 08:00:05;;;;;;;75.60;32.42;;;;;;;1.78;65.38;97202.91;4979139;28;20041;-86
2022/12/19 08:02:30;;;;;;;77.50;34.15;;;;;;;1.62;64.69;97154.06;4996074;28;21045;-85
2022/12/19 08:04:56;;;;;;;83.78;33.95;;;;;;;1.19;65.54;97090.03;4996843;28;20217;-85
2022/12/19 08:07:21;;;;;;;82.15;35.30;;;;;;;-0.32;65.55;96870.75;5003433;28;20044;-86
2022/12/19 08:09:47;;;;;;;85.22;36.42;;;;;;;1.70;65.10;97184.63;5000078;28;20149;-86
2022/12/19 08:12:12;;;;;;;84.00;35.95;;;;;;;2.02;65.07;97202.81;4995274;28;20077;-86
2022/12/19 08:14:38;;;;;;;85.25;33.28;;;;;;;1.58;65.12;97118.00;4986884;28;20049;-85
2022/12/19 08:17:03;;;;;;;77.68;31.60;;;;;;;1.86;64.98;97163.63;4982966;28;20233;-86
2022/12/19 08:19:28;;;;;;;74.00;31.95;;;;;;;1.60;65.06;97116.84;5000220;28;20041;-84
2022/12/19 08:21:54;;;;;;;70.85;31.52;;;;;;;2.01;64.69;97161.91;5003262;28;20053;-85
2022/12/19 08:24:19;;;;;;;79.70;32.55;;;;;;;2.36;64.19;97204.28;5007760;28;20045;-84
2022/12/19 08:26:45;;;;;;;82.10;30.45;;;;;;;2.13;64.28;97163.19;4986859;28;20041;-84
2022/12/19 08:29:10;;;;;;;70.43;29.33;;;;;;;1.72;64.07;97105.00;4983485;28;20522;-84
2022/12/19 08:31:36;;;;;;;81.07;31.83;;;;;;;0.51;64.17;96939.06;4988941;28;20045;-85
2022/12/19 08:34:01;;;;;;;69.35;29.52;;;;;;;2.08;64.22;97157.63;5007130;28;20130;-85
2022/12/19 08:36:27;;;;;;;82.97;31.25;;;;;;;0.59;63.83;96897.25;5002403;28;20101;-84
2022/12/19 08:38:53;;;;;;;68.40;33.03;;;;;;;1.98;64.68;97122.22;4997242;28;20645;-85
2022/12/19 08:41:18;;;;;;;71.88;30.75;;;;;;;2.48;64.09;97181.94;4987062;28;20041;-84
2022/12/19 08:43:52;;;;;;;64.85;30.45;;;;;;;1.42;64.60;97014.28;4983453;28;20045;-85
2022/12/19 08:46:18;;;;;;;71.72;31.33;;;;;;;2.66;64.42;97206.88;4998177;28;20037;-85
2022/12/19 08:48:44;;;;;;;76.65;33.05;;;;;;;0.42;64.30;96853.09;4981851;28;20139;-85
2022/12/19 08:51:11;;;;;;;75.95;32.25;;;;;;;2.75;64.23;97201.56;4985303;28;20476;-85
2022/12/19 08:53:38;;;;;;;69.90;32.70;;;;;;;2.57;64.33;97178.28;5001212;28;20046;-85
2022/12/19 08:56:14;;;;;;;74.35;33.78;;;;;;;2.74;64.44;97185.03;4998065;28;20069;-85
2022/12/19 08:58:39;;;;;;;81.03;36.05;;;;;;;2.35;64.46;97142.44;5002566;28;20057;-85
2022/12/19 09:01:08;;;;;;;83.25;35.15;;;;;;;2.66;64.89;97185.91;4994939;28;20665;-88
2022/12/19 09:03:33;;;;;;;72.13;33.55;;;;;;;2.59;65.23;97147.50;5001250;28;20029;-85
2022/12/19 09:06:04;;;;;;;80.82;32.25;;;;;;;0.82;64.48;96852.94;5000257;28;20102;-85
2022/12/19 09:08:31;;;;;;;79.22;32.38;;;;;;;2.83;64.71;97155.13;5003640;28;20050;-85
2022/12/19 09:11:02;;;;;;;77.22;32.22;;;;;;;2.67;64.26;97121.22;5002798;28;20037;-85
2022/12/19 09:13:28;;;;;;;72.75;33.05;;;;;;;3.03;64.57;97164.16;4999833;28;20094;-85
2022/12/19 09:16:24;;;;;;;66.45;28.33;;;;;;;2.75;64.40;97100.19;5001553;28;20065;-85
2022/12/19 09:18:51;;;;;;;61.55;27.40;;;;;;;2.52;64.56;97060.09;4970259;28;20046;-84
2022/12/19 09:21:20;;;;;;;72.88;30.50;;;;;;;1.40;64.02;96894.19;5000328;28;20038;-84
2022/12/19 09:23:53;;;;;;;61.72;29.55;;;;;;;3.08;64.24;97164.41;4998654;28;20061;-85
2022/12/19 09:26:21;;;;;;;63.10;29.75;;;;;;;3.16;64.53;97150.41;4999797;28;20189;-85
2022/12/19 09:28:47;;;;;;;69.55;30.10;;;;;;;1.21;64.71;96845.00;4981108;28;20424;-85
2022/12/19 09:31:16;;;;;;;67.85;29.55;;;;;;;2.86;64.85;97083.22;4994410;28;20364;-85
2022/12/19 09:33:42;;;;;;;68.15;29.27;;;;;;;3.14;64.70;97141.09;4978902;28;20345;-85
2022/12/19 09:36:11;;;;;;;68.63;30.27;;;;;;;3.12;65.41;97136.06;4986106;28;20147;-85
2022/12/19 09:38:37;;;;;;;65.47;27.85;;;;;;;2.97;65.32;97096.72;4984560;28;20046;-84
2022/12/19 09:41:23;;;;;;;62.08;27.60;;;;;;;3.17;65.63;97115.34;4995636;28;20042;-85
2022/12/19 09:44:03;;;;;;;58.55;26.02;;;;;;;3.30;65.48;97115.53;4999609;28;20041;-84
2022/12/19 09:46:44;;;;;;;58.23;26.73;;;;;;;1.83;64.72;96860.50;4908296;28;20042;-86
2022/12/19 09:49:16;;;;;;;55.72;25.90;;;;;;;1.55;64.69;96828.88;5003111;28;20033;-86
2022/12/19 09:52:20;;;;;;;58.33;27.00;;;;;;;2.59;65.03;97001.63;4989849;28;20068;-87
2022/12/19 09:54:56;;;;;;;55.65;25.45;;;;;;;2.58;64.88;96976.41;4958115;28;20041;-87
2022/12/19 09:57:55;;;;;;;59.85;24.52;;;;;;;3.09;65.34;97076.09;4990430;28;20052;-87
2022/12/19 10:00:22;;;;;;;56.30;25.55;;;;;;;3.12;66.07;97109.84;5005784;28;20042;-87
2022/12/19 10:03:06;;;;;;;57.42;25.33;;;;;;;2.04;67.18;96954.84;4993390;28;20041;-88
2022/12/19 10:05:42;;;;;;;55.63;24.73;;;;;;;3.04;67.56;97105.50;4987699;28;20077;-87
2022/12/19 10:08:37;;;;;;;63.28;24.67;;;;;;;3.20;67.38;97104.50;4992958;28;20045;-87
2022/12/19 10:11:11;;;;;;;77.57;27.38;;;;;;;3.46;66.40;97099.59;5010707;28;20140;-86
2022/12/19 10:14:20;;;;;;;48.90;23.27;;;;;;;3.35;66.21;97049.44;5010672;28;20041;-87
2022/12/19 10:16:55;;;;;;;55.72;24.75;;;;;;;3.57;66.45;97090.47;4995713;28;20042;-87
2022/12/19 10:19:44;;;;;;;57.47;24.10;;;;;;;3.72;66.24;97077.34;4988280;28;20408;-86
2022/12/19 10:22:22;;;;;;;52.90;23.95;;;;;;;3.33;66.41;96998.97;4977905;28;20570;-85
2022/12/19 10:25:22;;;;;;;54.67;24.77;;;;;;;3.93;66.35;97066.88;5008873;28;20048;-86
2022/12/19 10:28:11;;;;;;;48.33;22.10;;;;;;;2.85;65.45;96878.00;4997400;28;20046;-86
2022/12/19 10:30:56;;;;;;;45.80;21.52;;;;;;;4.23;65.61;97052.63;4985733;28;20042;-87
2022/12/19 10:33:31;;;;;;;50.80;23.58;;;;;;;3.56;65.09;96915.69;5007454;28;20042;-85
2022/12/19 10:36:00;;;;;;;51.38;23.52;;;;;;;4.38;64.51;97042.06;5010055;28;20025;-85
2022/12/19 10:38:31;;;;;;;46.50;22.20;;;;;;;4.64;64.21;97055.41;5007173;28;20053;-85
2022/12/19 10:41:19;;;;;;;60.53;22.73;;;;;;;4.70;63.97;97053.03;5007617;28;20195;-86
2022/12/19 10:43:47;;;;;;;56.45;23.70;;;;;;;4.49;64.55;97049.44;5006040;28;20049;-85
2022/12/19 10:46:20;;;;;;;52.60;24.35;;;;;;;3.40;63.41;96871.34;5013747;28;20038;-87
2022/12/19 10:48:49;;;;;;;50.92;23.08;;;;;;;3.87;64.88;96967.88;5009291;28;20408;-87
2022/12/19 10:51:22;;;;;;;53.90;23.88;;;;;;;2.35;64.71;96724.31;5010608;28;20069;-85
2022/12/19 10:53:59;;;;;;;63.83;26.40;;;;;;;4.59;64.61;97043.81;5012608;28;20034;-85
2022/12/19 10:56:29;;;;;;;57.65;25.35;;;;;;;3.98;64.35;96935.03;4995640;28;20044;-85
2022/12/19 10:58:57;;;;;;;57.53;25.70;;;;;;;2.16;64.88;96646.38;5000961;28;20156;-85
2022/12/19 11:01:30;;;;;;;51.92;24.38;;;;;;;4.39;63.95;97000.84;4992048;28;20270;-87
2022/12/19 11:04:14;;;;;;;53.28;24.73;;;;;;;4.64;64.66;97037.03;4995874;28;20041;-85
2022/12/19 11:06:45;;;;;;;51.15;24.58;;;;;;;4.25;64.76;96971.03;5015401;28;20045;-86
2022/12/19 11:09:26;;;;;;;56.78;25.40;;;;;;;4.60;65.17;97038.38;5011707;28;20238;-85
2022/12/19 11:12:21;;;;;;;49.72;24.30;;;;;;;4.49;65.63;97036.28;4988410;28;20045;-84
2022/12/19 11:14:52;;;;;;;52.88;24.25;;;;;;;4.41;65.75;97039.06;5004370;28;20117;-85
2022/12/19 11:17:35;;;;;;;52.28;24.13;;;;;;;3.84;66.67;96989.22;4987009;28;20343;-85
2022/12/19 11:20:34;;;;;;;49.60;21.83;;;;;;;4.30;66.62;97030.84;4989646;28;20034;-85
2022/12/19 11:23:00;;;;;;;41.97;20.73;;;;;;;3.72;66.55;96936.44;4959536;28;20045;-84
2022/12/19 11:25:39;;;;;;;45.83;20.35;;;;;;;3.96;66.41;96963.31;4998098;28;20044;-86
2022/12/19 11:28:17;;;;;;;42.40;20.38;;;;;;;2.41;65.96;96707.06;4999221;28;20057;-86
2022/12/19 11:30:43;;;;;;;40.90;19.10;;;;;;;1.67;66.68;96633.94;4987774;28;20089;-87
2022/12/19 11:33:14;;;;;;;43.38;20.30;;;;;;;4.20;66.21;96992.59;4983492;28;20440;-87
2022/12/19 11:35:45;;;;;;;;;;;;;;;4.48;66.88;97023.34;4979417;28;20052;-86
2022/12/19 11:38:14;;;;;;;40.35;21.05;;;;;;;3.71;66.63;96919.06;4989810;28;20005;-86
2022/12/19 11:40:51;;;;;;;46.10;21.90;;;;;;;3.68;66.27;96895.81;5001154;28;20030;-87
2022/12/19 11:43:26;;;;;;;41.50;21.88;;;;;;;4.50;66.57;97021.34;4981056;28;20070;-87